createdAt,value
2022-11-09T00:00:40.961Z,72.49
2022-11-09T00:03:07.699Z,72.70
2022-11-09T00:05:34.442Z,72.36
2022-11-09T00:08:01.122Z,72.68
2022-11-09T00:10:28.218Z,72.60
2022-11-09T00:12:54.883Z,73.30
2022-11-09T00:15:21.532Z,72.81
2022-11-09T00:17:48.141Z,73.00
2022-11-09T00:20:14.837Z,72.99
2022-11-09T00:22:41.474Z,72.85
2022-11-09T00:25:08.584Z,72.59
2022-11-09T00:27:35.203Z,72.69
2022-11-09T00:30:01.889Z,72.53
2022-11-09T00:32:28.530Z,72.67
2022-11-09T00:34:55.161Z,72.83
2022-11-09T00:37:21.893Z,73.08
2022-11-09T00:39:48.544Z,72.57
2022-11-09T00:42:15.213Z,72.45
2022-11-09T00:44:41.858Z,73.29
2022-11-09T00:47:08.508Z,73.44
2022-11-09T00:49:35.107Z,72.76
2022-11-09T00:52:01.771Z,72.63
2022-11-09T00:54:28.457Z,72.83
2022-11-09T00:56:55.048Z,72.97
2022-11-09T00:59:21.681Z,73.10
2022-11-09T01:01:48.258Z,72.92
2022-11-09T01:04:14.943Z,72.98
2022-11-09T01:06:41.645Z,72.73
2022-11-09T01:09:08.351Z,73.14
2022-11-09T01:11:35.153Z,73.12
2022-11-09T01:14:02.319Z,72.91
2022-11-09T01:16:29.059Z,73.06
2022-11-09T01:18:56.101Z,73.36
2022-11-09T01:21:22.924Z,72.83
2022-11-09T01:23:49.521Z,73.21
2022-11-09T01:26:16.229Z,73.92
2022-11-09T01:28:42.954Z,73.07
2022-11-09T01:31:19.742Z,73.31
2022-11-09T01:33:46.486Z,72.88
2022-11-09T01:36:14.738Z,72.95
2022-11-09T01:38:41.465Z,73.01
2022-11-09T01:41:08.706Z,72.66
2022-11-09T01:43:35.450Z,73.02
2022-11-09T01:46:05.804Z,72.28
2022-11-09T01:48:54.057Z,72.53
2022-11-09T01:51:30.310Z,72.56
2022-11-09T01:54:18.756Z,72.31
2022-11-09T01:56:46.013Z,72.73
2022-11-09T01:59:17.983Z,72.56
2022-11-09T02:01:44.698Z,72.15
2022-11-09T02:04:13.866Z,72.01
2022-11-09T02:06:40.489Z,72.32
2022-11-09T02:09:12.616Z,71.44
2022-11-09T02:11:39.655Z,72.19
2022-11-09T02:14:06.238Z,72.35
2022-11-09T02:16:32.848Z,72.83
2022-11-09T02:19:00.945Z,72.51
2022-11-09T02:25:14.837Z,72.27
2022-11-09T02:27:42.493Z,72.51
2022-11-09T02:30:09.635Z,72.60
2022-11-09T02:32:36.355Z,72.75
2022-11-09T02:35:03.119Z,72.35
2022-11-09T02:37:46.625Z,72.45
2022-11-09T02:40:22.645Z,72.07
2022-11-09T02:42:49.290Z,71.95
2022-11-09T02:45:15.981Z,72.08
2022-11-09T02:47:42.642Z,72.26
2022-11-09T02:50:09.740Z,72.38
2022-11-09T02:52:36.346Z,72.30
2022-11-09T02:55:03.033Z,72.44
2022-11-09T02:57:29.894Z,72.81
2022-11-09T02:59:56.691Z,72.54
2022-11-09T03:02:23.429Z,72.27
2022-11-09T03:08:30.620Z,72.46
2022-11-09T03:10:59.142Z,72.85
2022-11-09T03:13:25.821Z,72.61
2022-11-09T03:15:52.458Z,72.85
2022-11-09T03:18:19.079Z,72.96
2022-11-09T03:20:45.821Z,72.81
2022-11-09T03:23:12.577Z,72.53
2022-11-09T03:25:39.226Z,73.01
2022-11-09T03:28:07.152Z,72.59
2022-11-09T03:30:33.867Z,72.30
2022-11-09T03:33:01.155Z,72.55
2022-11-09T03:35:27.894Z,72.23
2022-11-09T03:37:54.701Z,72.23
2022-11-09T03:40:21.447Z,72.61
2022-11-09T03:42:48.461Z,71.75
2022-11-09T03:45:15.776Z,72.62
2022-11-09T03:47:43.243Z,72.66
2022-11-09T03:50:10.325Z,72.79
2022-11-09T03:52:37.029Z,72.88
2022-11-09T03:55:04.409Z,72.10
2022-11-09T03:57:31.102Z,72.09
2022-11-09T03:59:57.734Z,72.00
2022-11-09T04:02:24.401Z,72.41
2022-11-09T04:04:51.078Z,72.39
2022-11-09T04:07:17.843Z,72.27
2022-11-09T04:09:44.495Z,72.06
2022-11-09T04:12:11.138Z,72.04
2022-11-09T04:14:37.874Z,72.07
2022-11-09T04:17:04.500Z,72.01
2022-11-09T04:23:18.919Z,72.57
2022-11-09T04:25:45.756Z,71.78
2022-11-09T04:28:12.779Z,72.00
2022-11-09T04:30:39.475Z,72.36
2022-11-09T04:33:06.161Z,72.34
2022-11-09T04:35:33.300Z,72.17
2022-11-09T04:38:01.381Z,72.50
2022-11-09T04:40:29.013Z,72.03
2022-11-09T04:42:55.844Z,72.22
2022-11-09T04:45:22.491Z,72.26
2022-11-09T04:47:49.167Z,72.17
2022-11-09T04:50:15.965Z,72.04
2022-11-09T04:52:42.609Z,72.35
2022-11-09T04:55:09.409Z,72.66
2022-11-09T04:57:36.016Z,71.85
2022-11-09T05:00:02.692Z,72.51
2022-11-09T05:02:29.310Z,72.12
2022-11-09T05:04:55.901Z,71.33
2022-11-09T05:07:22.598Z,72.01
2022-11-09T05:09:49.273Z,72.14
2022-11-09T05:12:15.929Z,72.45
2022-11-09T05:14:42.588Z,72.11
2022-11-09T05:17:09.260Z,72.29
2022-11-09T05:19:35.896Z,72.16
2022-11-09T05:22:22.518Z,72.35
2022-11-09T05:24:51.885Z,72.38
2022-11-09T05:27:18.589Z,71.95
2022-11-09T05:29:45.293Z,71.91
2022-11-09T05:40:23.567Z,72.08
2022-11-09T05:42:50.260Z,72.52
2022-11-09T05:48:04.972Z,72.28
2022-11-09T05:50:31.866Z,72.70
2022-11-09T05:53:00.393Z,72.63
2022-11-09T05:55:27.175Z,72.48
2022-11-09T05:57:54.076Z,72.25
2022-11-09T06:00:21.082Z,72.06
2022-11-09T06:02:47.810Z,72.32
2022-11-09T06:05:14.518Z,72.50
2022-11-09T06:07:41.223Z,72.52
2022-11-09T06:10:08.605Z,72.36
2022-11-09T06:12:35.327Z,72.38
2022-11-09T06:15:02.029Z,72.16
2022-11-09T06:17:28.722Z,72.65
2022-11-09T06:19:55.383Z,72.26
2022-11-09T06:22:21.987Z,72.22
2022-11-09T06:24:48.638Z,72.27
2022-11-09T06:27:39.167Z,71.99
2022-11-09T06:30:06.502Z,72.03
2022-11-09T06:32:33.300Z,72.17
2022-11-09T06:34:59.900Z,72.14
2022-11-09T06:37:26.495Z,72.27
2022-11-09T06:39:53.110Z,71.68
2022-11-09T06:42:19.866Z,71.72
2022-11-09T06:44:46.493Z,71.36
2022-11-09T06:47:13.112Z,70.69
2022-11-09T06:49:39.664Z,70.61
2022-11-09T06:52:06.255Z,71.05
2022-11-09T06:54:33.806Z,70.97
2022-11-09T06:57:00.966Z,71.52
2022-11-09T06:59:27.806Z,71.35
2022-11-09T07:01:57.685Z,71.06
2022-11-09T07:04:27.788Z,70.81
2022-11-09T07:06:54.394Z,70.70
2022-11-09T07:09:21.050Z,70.72
2022-11-09T07:11:49.215Z,70.89
2022-11-09T07:14:15.783Z,71.39
2022-11-09T07:16:42.354Z,71.58
2022-11-09T07:19:09.202Z,70.64
2022-11-09T07:21:35.985Z,69.96
2022-11-09T07:24:02.549Z,69.85
2022-11-09T07:26:29.587Z,69.38
2022-11-09T07:28:56.392Z,69.54
2022-11-09T07:31:22.989Z,69.05
2022-11-09T07:33:50.153Z,68.03
2022-11-09T07:36:21.072Z,67.71
2022-11-09T07:38:48.086Z,67.70
2022-11-09T07:41:14.714Z,66.76
2022-11-09T07:43:41.287Z,65.22
2022-11-09T07:46:07.921Z,64.73
2022-11-09T07:48:34.631Z,62.70
2022-11-09T07:51:02.187Z,61.03
2022-11-09T07:53:28.808Z,60.13
2022-11-09T07:56:01.649Z,59.73
2022-11-09T07:58:28.417Z,59.19
2022-11-09T08:00:55.138Z,58.62
2022-11-09T08:03:22.436Z,58.13
2022-11-09T08:05:49.588Z,58.08
2022-11-09T08:08:16.744Z,58.03
2022-11-09T08:10:43.924Z,58.34
2022-11-09T08:13:12.203Z,58.29
2022-11-09T08:15:39.054Z,58.14
2022-11-09T08:18:07.849Z,57.75
2022-11-09T08:20:34.646Z,57.16
2022-11-09T08:23:04.593Z,57.28
2022-11-09T08:25:33.457Z,56.81
2022-11-09T08:28:00.130Z,56.11
2022-11-09T08:30:26.959Z,55.47
2022-11-09T08:32:53.752Z,53.72
2022-11-09T08:35:22.113Z,53.15
2022-11-09T08:37:49.952Z,52.23
2022-11-09T08:40:19.944Z,51.99
2022-11-09T08:42:46.655Z,48.84
2022-11-09T08:45:13.446Z,49.52
2022-11-09T08:47:40.274Z,48.79
2022-11-09T08:50:07.526Z,49.38
2022-11-09T08:52:34.199Z,49.44
2022-11-09T08:55:00.903Z,49.43
2022-11-09T08:57:27.633Z,50.28
2022-11-09T08:59:54.280Z,50.55
2022-11-09T09:02:21.295Z,51.24
2022-11-09T09:04:47.958Z,51.65
2022-11-09T09:07:14.620Z,53.00
2022-11-09T09:09:41.324Z,53.41
2022-11-09T09:12:08.750Z,54.66
2022-11-09T09:14:35.467Z,54.23
2022-11-09T09:17:02.123Z,54.80
2022-11-09T09:19:28.815Z,56.43
2022-11-09T09:21:55.516Z,56.62
2022-11-09T09:24:22.188Z,57.06
2022-11-09T09:26:50.222Z,57.08
2022-11-09T09:29:17.132Z,56.61
2022-11-09T09:31:43.796Z,57.89
2022-11-09T09:34:11.966Z,57.92
2022-11-09T09:36:42.069Z,57.08
2022-11-09T09:39:11.489Z,57.60
2022-11-09T09:41:45.488Z,57.30
2022-11-09T09:44:30.452Z,58.52
2022-11-09T09:47:13.430Z,58.83
2022-11-09T09:50:01.480Z,59.43
2022-11-09T12:34:17.701Z,65.07
2022-11-09T12:37:19.368Z,65.59
2022-11-09T12:39:56.606Z,65.66
2022-11-09T12:42:39.680Z,65.37
2022-11-09T12:45:34.665Z,65.34
2022-11-09T12:48:38.099Z,65.08
2022-11-09T12:51:07.258Z,64.73
2022-11-09T12:53:36.857Z,65.35
2022-11-09T12:56:47.365Z,65.60
2022-11-09T12:59:29.347Z,64.53
2022-11-09T13:01:57.619Z,64.90
2022-11-09T13:04:24.692Z,65.50
2022-11-09T13:07:03.699Z,65.51
2022-11-09T13:09:44.055Z,66.31
2022-11-09T13:12:19.422Z,67.08
2022-11-09T13:14:46.159Z,66.80
2022-11-09T13:17:24.813Z,67.37
2022-11-09T13:19:54.497Z,66.41
2022-11-09T13:22:21.063Z,66.73
2022-11-09T13:24:59.988Z,66.08
2022-11-09T13:27:45.769Z,65.90
2022-11-09T13:30:33.339Z,65.34
2022-11-09T13:33:06.057Z,64.99
2022-11-09T13:35:41.870Z,65.87
2022-11-09T13:38:17.564Z,65.75
2022-11-09T13:40:45.100Z,65.27
2022-11-09T13:43:11.620Z,66.44
2022-11-09T13:45:54.656Z,65.69
2022-11-09T13:48:36.693Z,65.88
2022-11-09T13:51:05.165Z,65.61
2022-11-09T13:53:37.887Z,66.49
2022-11-09T13:56:27.005Z,66.26
2022-11-09T13:58:55.578Z,66.49
2022-11-09T14:01:30.463Z,66.37
2022-11-09T14:03:58.722Z,66.42
2022-11-09T14:06:25.470Z,66.67
2022-11-09T14:08:52.183Z,66.89
2022-11-09T14:11:59.574Z,67.06
2022-11-09T14:14:38.403Z,66.05
2022-11-09T14:17:20.907Z,65.92
2022-11-09T14:20:19.708Z,65.83
2022-11-09T14:22:46.351Z,66.68
2022-11-09T14:25:17.528Z,67.09
2022-11-09T14:27:57.399Z,67.44
2022-11-09T14:30:31.061Z,67.25
2022-11-09T14:32:58.279Z,67.25
2022-11-09T14:35:35.501Z,67.61
2022-11-09T14:38:09.850Z,67.59
2022-11-09T14:40:36.439Z,67.14
2022-11-09T14:43:23.295Z,67.64
2022-11-09T14:45:50.819Z,67.98
2022-11-09T14:48:18.600Z,68.27
2022-11-09T14:50:45.485Z,68.40
2022-11-09T14:53:26.521Z,68.39
2022-11-09T14:55:54.470Z,68.66
2022-11-09T14:58:21.478Z,68.68
2022-11-09T15:01:36.325Z,69.22
2022-11-09T15:04:13.190Z,68.82
2022-11-09T15:06:51.242Z,68.92
2022-11-09T15:09:22.713Z,69.45
2022-11-09T15:11:49.588Z,69.64
2022-11-09T15:14:23.907Z,69.54
2022-11-09T15:16:50.501Z,69.82
2022-11-09T15:19:34.292Z,69.51
2022-11-09T15:22:01.707Z,69.76
2022-11-09T15:24:28.739Z,69.58
2022-11-09T15:26:57.138Z,69.74
2022-11-09T15:29:26.809Z,69.93
2022-11-09T15:31:58.198Z,70.13
2022-11-09T15:34:27.021Z,70.50
2022-11-09T15:36:54.585Z,70.93
2022-11-09T15:39:22.172Z,71.07
2022-11-09T15:41:48.768Z,71.59
2022-11-09T15:44:15.525Z,72.01
2022-11-09T15:46:47.748Z,72.38
2022-11-09T15:49:22.781Z,72.43
2022-11-09T15:51:49.276Z,73.06
2022-11-09T15:54:16.115Z,72.85
2022-11-09T15:56:43.396Z,72.54
2022-11-09T15:59:24.134Z,72.88
2022-11-09T16:01:51.038Z,72.92
2022-11-09T16:04:17.686Z,73.51
2022-11-09T16:06:46.792Z,73.93
2022-11-09T16:09:13.925Z,73.92
2022-11-09T16:11:40.593Z,74.09
2022-11-09T16:14:07.359Z,74.31
2022-11-09T16:16:34.022Z,74.27
2022-11-09T16:19:00.695Z,74.66
2022-11-09T16:21:27.433Z,74.45
2022-11-09T16:23:58.245Z,74.32
2022-11-09T16:26:26.473Z,74.56
2022-11-09T16:28:53.340Z,74.03
2022-11-09T16:31:41.169Z,74.86
2022-11-09T16:34:06.897Z,74.68
2022-11-09T16:36:33.513Z,74.76
2022-11-09T16:39:00.126Z,75.10
2022-11-09T16:41:26.805Z,75.14
2022-11-09T16:43:56.313Z,74.98
2022-11-09T16:46:27.945Z,75.06
2022-11-09T16:48:54.986Z,75.07
2022-11-09T16:51:21.805Z,74.89
2022-11-09T16:53:48.451Z,75.15
2022-11-09T16:56:15.136Z,74.90
2022-11-09T16:58:41.803Z,75.71
2022-11-09T17:01:12.007Z,75.75
2022-11-09T17:03:39.333Z,75.52
2022-11-09T17:06:07.345Z,75.81
2022-11-09T17:08:33.970Z,75.53
2022-11-09T17:11:00.649Z,75.42
2022-11-09T17:13:27.306Z,76.05
2022-11-09T17:15:53.965Z,75.78
2022-11-09T17:18:20.887Z,75.68
2022-11-09T17:20:49.125Z,75.90
2022-11-09T17:23:19.361Z,76.11
2022-11-09T17:25:59.265Z,76.21
2022-11-09T17:28:26.081Z,76.44
2022-11-09T17:30:52.709Z,76.43
2022-11-09T17:33:19.539Z,76.44
2022-11-09T17:35:46.235Z,76.42
2022-11-09T17:38:13.012Z,77.17
2022-11-09T17:40:39.684Z,76.91
2022-11-09T17:43:06.417Z,77.39
2022-11-09T17:45:34.718Z,77.24
2022-11-09T17:48:01.832Z,77.21
2022-11-09T17:50:28.454Z,77.07
2022-11-09T17:52:55.083Z,77.34
2022-11-09T17:55:21.685Z,77.00
2022-11-09T17:57:48.737Z,76.79
2022-11-09T18:00:15.935Z,76.95
2022-11-09T18:02:42.530Z,76.73
2022-11-09T18:05:10.991Z,76.45
2022-11-09T18:07:37.645Z,76.23
2022-11-09T18:10:04.584Z,75.59
2022-11-09T18:12:31.232Z,76.28
2022-11-09T18:14:57.977Z,76.20
2022-11-09T18:17:24.598Z,76.37
2022-11-09T18:19:51.302Z,76.46
2022-11-09T18:22:18.022Z,76.53
2022-11-09T18:24:44.606Z,76.30
2022-11-09T18:27:11.294Z,75.88
2022-11-09T18:29:37.902Z,75.94
2022-11-09T18:32:04.723Z,75.92
2022-11-09T18:34:31.388Z,76.12
2022-11-09T18:36:58.022Z,76.24
2022-11-09T18:39:26.604Z,76.05
2022-11-09T18:41:55.047Z,75.99
2022-11-09T18:44:21.650Z,76.43
2022-11-09T18:46:48.367Z,76.44
2022-11-09T18:49:15.134Z,76.01
2022-11-09T18:51:42.755Z,76.47
2022-11-09T18:54:09.359Z,76.15
2022-11-09T18:56:36.055Z,76.75
2022-11-09T18:59:02.660Z,76.65
2022-11-09T19:01:29.730Z,76.78
2022-11-09T19:03:59.596Z,76.96
2022-11-09T19:06:26.900Z,77.14
2022-11-09T19:09:12.387Z,76.76
2022-11-09T19:11:39.330Z,76.66
2022-11-09T19:14:06.484Z,77.20
2022-11-09T19:16:34.249Z,77.10
2022-11-09T19:19:01.814Z,77.24
2022-11-09T19:21:40.238Z,77.32
2022-11-09T19:24:08.770Z,77.28
2022-11-09T19:26:36.466Z,77.02
2022-11-09T19:29:04.132Z,77.29
2022-11-09T19:31:30.954Z,77.02
2022-11-09T19:33:57.725Z,76.47
2022-11-09T19:36:30.697Z,76.79
2022-11-09T19:38:58.023Z,77.01
2022-11-09T19:41:25.558Z,77.27
2022-11-09T19:43:54.594Z,77.26
2022-11-09T19:46:21.853Z,77.56
2022-11-09T19:48:48.602Z,77.25
2022-11-09T19:51:15.627Z,77.47
2022-11-09T19:53:42.905Z,77.24
2022-11-09T19:56:09.723Z,77.40
2022-11-09T19:58:36.613Z,77.58
2022-11-09T20:01:12.355Z,77.50
2022-11-09T20:03:39.027Z,77.85
2022-11-09T20:06:07.286Z,77.52
2022-11-09T20:08:34.844Z,78.27
2022-11-09T20:11:06.164Z,78.01
2022-11-09T20:13:32.785Z,78.38
2022-11-09T20:16:09.203Z,77.96
2022-11-09T20:18:38.771Z,77.92
2022-11-09T20:21:08.672Z,77.88
2022-11-09T20:23:35.275Z,78.17
2022-11-09T20:26:10.772Z,78.38
2022-11-09T20:28:37.589Z,78.50
2022-11-09T20:31:30.550Z,78.58
2022-11-09T20:33:57.224Z,78.59
2022-11-09T20:36:23.866Z,78.84
2022-11-09T20:38:50.520Z,78.82
2022-11-09T20:41:20.533Z,79.43
2022-11-09T20:43:49.618Z,78.96
2022-11-09T20:46:23.109Z,79.14
2022-11-09T20:48:55.286Z,79.46
2022-11-09T20:51:23.317Z,79.17
2022-11-09T20:53:50.875Z,79.20
2022-11-09T20:56:18.194Z,79.12
2022-11-09T20:58:44.898Z,79.02
2022-11-09T21:01:16.678Z,79.47
2022-11-09T21:03:43.517Z,79.24
2022-11-09T21:06:10.852Z,79.45
2022-11-09T21:08:37.713Z,78.97
2022-11-09T21:11:05.418Z,79.46
2022-11-09T21:13:32.113Z,79.39
2022-11-09T21:16:08.675Z,79.53
2022-11-09T21:18:35.367Z,78.96
2022-11-09T21:21:12.194Z,79.52
2022-11-09T21:23:57.324Z,79.15
2022-11-09T21:26:42.605Z,79.53
2022-11-09T21:29:28.300Z,79.40
2022-11-09T21:31:55.018Z,79.69
2022-11-09T21:34:21.635Z,80.28
2022-11-09T21:36:48.403Z,80.50
2022-11-09T21:39:15.093Z,80.40
2022-11-09T21:41:42.057Z,80.52
2022-11-09T21:44:09.831Z,80.61
2022-11-09T21:46:37.391Z,80.48
2022-11-09T21:49:05.474Z,79.96
2022-11-09T21:51:34.400Z,80.41
2022-11-09T21:54:01.078Z,80.17
2022-11-09T21:56:27.767Z,80.04
2022-11-09T21:58:54.467Z,80.00
2022-11-09T22:01:21.332Z,79.72
2022-11-09T22:03:48.055Z,79.61
2022-11-09T22:06:14.981Z,79.64
2022-11-09T22:08:42.130Z,78.86
2022-11-09T22:11:13.689Z,79.29
2022-11-09T22:13:59.367Z,79.28
2022-11-09T22:16:26.642Z,79.04
2022-11-09T22:19:11.834Z,78.61
2022-11-09T22:21:38.551Z,78.93
2022-11-09T22:24:05.486Z,78.99
2022-11-09T22:26:32.422Z,78.78
2022-11-09T22:32:39.731Z,78.56
2022-11-09T22:35:06.659Z,78.42
2022-11-09T22:37:33.305Z,78.49
2022-11-09T22:40:00.005Z,78.57
2022-11-09T22:42:27.278Z,78.44
2022-11-09T22:44:53.922Z,78.43
2022-11-09T22:47:20.664Z,78.28
2022-11-09T22:49:47.332Z,78.24
2022-11-09T22:52:14.103Z,77.56
2022-11-09T22:54:40.781Z,78.05
2022-11-09T22:57:07.433Z,77.49
2022-11-09T22:59:34.093Z,77.41
2022-11-09T23:02:00.802Z,78.05
2022-11-09T23:04:27.500Z,77.62
2022-11-09T23:06:54.230Z,77.46
2022-11-09T23:09:26.193Z,77.36
2022-11-09T23:11:52.871Z,77.83
2022-11-09T23:14:39.465Z,77.50
2022-11-09T23:17:26.022Z,77.13
2022-11-09T23:19:52.664Z,77.83
2022-11-09T23:22:19.336Z,77.33
2022-11-09T23:25:04.538Z,77.62
2022-11-09T23:27:31.224Z,77.30
2022-11-09T23:29:57.827Z,77.48
2022-11-09T23:32:24.607Z,77.14
2022-11-09T23:34:51.294Z,77.07
2022-11-09T23:37:18.065Z,76.75
2022-11-09T23:39:44.740Z,76.51
2022-11-09T23:42:11.388Z,75.64
2022-11-09T23:44:38.005Z,75.71
2022-11-09T23:47:04.675Z,75.59
2022-11-09T23:49:31.298Z,75.75
2022-11-09T23:51:57.965Z,75.35
2022-11-09T23:54:24.675Z,75.17
2022-11-09T23:56:51.273Z,75.50
2022-11-09T23:59:17.879Z,75.81
